sensor_id;sensor_type;location;lat;lon;timestamp;temperature;humidity
53264;DHT22;39153;52.680;6.172;2022-10-31T00:02:25;12.20;99.90
53264;DHT22;39153;52.680;6.172;2022-10-31T00:04:50;12.20;99.90
53264;DHT22;39153;52.680;6.172;2022-10-31T00:07:16;12.10;99.90
53264;DHT22;39153;52.680;6.172;2022-10-31T00:09:42;12.00;99.90
53264;DHT22;39153;52.680;6.172;2022-10-31T00:12:07;12.00;99.90
53264;DHT22;39153;52.680;6.172;2022-10-31T00:14:33;12.10;99.90
53264;DHT22;39153;52.680;6.172;2022-10-31T00:16:59;12.10;99.90
53264;DHT22;39153;52.680;6.172;2022-10-31T00:19:24;12.10;99.90
53264;DHT22;39153;52.680;6.172;2022-10-31T00:21:51;12.10;99.90
53264;DHT22;39153;52.680;6.172;2022-10-31T00:24:17;12.00;99.90
53264;DHT22;39153;52.680;6.172;2022-10-31T00:26:43;12.10;99.90
53264;DHT22;39153;52.680;6.172;2022-10-31T00:29:09;12.10;99.90
53264;DHT22;39153;52.680;6.172;2022-10-31T00:31:35;11.90;99.90
53264;DHT22;39153;52.680;6.172;2022-10-31T00:34:00;11.90;99.90
53264;DHT22;39153;52.680;6.172;2022-10-31T00:36:28;12.10;99.90
53264;DHT22;39153;52.680;6.172;2022-10-31T00:38:54;12.10;99.90
53264;DHT22;39153;52.680;6.172;2022-10-31T00:41:19;11.90;99.90
53264;DHT22;39153;52.680;6.172;2022-10-31T00:43:45;11.90;99.90
53264;DHT22;39153;52.680;6.172;2022-10-31T00:46:12;12.00;99.90
53264;DHT22;39153;52.680;6.172;2022-10-31T00:48:38;11.90;99.90
53264;DHT22;39153;52.680;6.172;2022-10-31T00:51:04;11.90;99.90
53264;DHT22;39153;52.680;6.172;2022-10-31T00:53:30;11.80;99.90
53264;DHT22;39153;52.680;6.172;2022-10-31T00:55:55;12.00;99.90
53264;DHT22;39153;52.680;6.172;2022-10-31T00:58:21;12.00;99.90
53264;DHT22;39153;52.680;6.172;2022-10-31T01:00:48;11.80;99.90
53264;DHT22;39153;52.680;6.172;2022-10-31T01:03:21;11.80;99.90
53264;DHT22;39153;52.680;6.172;2022-10-31T01:05:56;11.90;99.90
53264;DHT22;39153;52.680;6.172;2022-10-31T01:08:22;11.80;99.90
53264;DHT22;39153;52.680;6.172;2022-10-31T01:11:07;12.00;99.90
53264;DHT22;39153;52.680;6.172;2022-10-31T01:13:34;11.80;99.90
53264;DHT22;39153;52.680;6.172;2022-10-31T01:16:01;11.80;99.90
53264;DHT22;39153;52.680;6.172;2022-10-31T01:18:27;11.90;99.90
53264;DHT22;39153;52.680;6.172;2022-10-31T01:21:11;11.70;99.90
53264;DHT22;39153;52.680;6.172;2022-10-31T01:23:37;11.80;99.90
53264;DHT22;39153;52.680;6.172;2022-10-31T01:28:45;11.90;99.90
53264;DHT22;39153;52.680;6.172;2022-10-31T01:31:11;11.80;99.90
53264;DHT22;39153;52.680;6.172;2022-10-31T01:33:37;11.80;99.90
53264;DHT22;39153;52.680;6.172;2022-10-31T01:36:18;11.80;99.90
53264;DHT22;39153;52.680;6.172;2022-10-31T01:38:45;11.60;99.90
53264;DHT22;39153;52.680;6.172;2022-10-31T01:41:14;11.80;99.90
53264;DHT22;39153;52.680;6.172;2022-10-31T01:46:24;11.60;99.90
53264;DHT22;39153;52.680;6.172;2022-10-31T01:48:53;11.60;99.90
53264;DHT22;39153;52.680;6.172;2022-10-31T01:51:22;11.50;99.90
53264;DHT22;39153;52.680;6.172;2022-10-31T01:53:50;11.80;99.90
53264;DHT22;39153;52.680;6.172;2022-10-31T01:56:18;11.50;99.90
53264;DHT22;39153;52.680;6.172;2022-10-31T01:58:45;11.70;99.90
53264;DHT22;39153;52.680;6.172;2022-10-31T02:01:12;11.50;99.90
53264;DHT22;39153;52.680;6.172;2022-10-31T02:03:39;11.70;99.90
53264;DHT22;39153;52.680;6.172;2022-10-31T02:06:10;11.50;99.90
53264;DHT22;39153;52.680;6.172;2022-10-31T02:08:40;11.60;99.90
53264;DHT22;39153;52.680;6.172;2022-10-31T02:11:07;11.50;99.90
53264;DHT22;39153;52.680;6.172;2022-10-31T02:13:33;11.30;99.90
53264;DHT22;39153;52.680;6.172;2022-10-31T02:15:59;11.30;99.90
53264;DHT22;39153;52.680;6.172;2022-10-31T02:18:28;11.40;99.90
53264;DHT22;39153;52.680;6.172;2022-10-31T02:23:53;11.30;99.90
53264;DHT22;39153;52.680;6.172;2022-10-31T02:26:39;11.30;99.90
53264;DHT22;39153;52.680;6.172;2022-10-31T02:37:40;11.30;99.90
53264;DHT22;39153;52.680;6.172;2022-10-31T02:42:55;11.30;99.90
53264;DHT22;39153;52.680;6.172;2022-10-31T02:47:55;11.40;99.90
53264;DHT22;39153;52.680;6.172;2022-10-31T02:50:32;11.20;99.90
53264;DHT22;39153;52.680;6.172;2022-10-31T02:53:01;11.20;99.90
53264;DHT22;39153;52.680;6.172;2022-10-31T02:55:50;11.20;99.90
53264;DHT22;39153;52.680;6.172;2022-10-31T02:58:15;11.30;99.90
53264;DHT22;39153;52.680;6.172;2022-10-31T03:06:09;10.90;99.90
53264;DHT22;39153;52.680;6.172;2022-10-31T03:11:16;11.20;99.90
53264;DHT22;39153;52.680;6.172;2022-10-31T03:13:57;11.30;99.90
53264;DHT22;39153;52.680;6.172;2022-10-31T03:16:47;11.30;99.90
53264;DHT22;39153;52.680;6.172;2022-10-31T03:19:17;11.00;99.90
53264;DHT22;39153;52.680;6.172;2022-10-31T03:21:48;11.10;99.90
53264;DHT22;39153;52.680;6.172;2022-10-31T03:24:15;10.90;99.90
53264;DHT22;39153;52.680;6.172;2022-10-31T03:26:51;11.10;99.90
53264;DHT22;39153;52.680;6.172;2022-10-31T03:29:20;11.20;99.90
53264;DHT22;39153;52.680;6.172;2022-10-31T03:31:55;11.10;99.90
53264;DHT22;39153;52.680;6.172;2022-10-31T03:34:22;10.90;99.90
53264;DHT22;39153;52.680;6.172;2022-10-31T03:36:51;11.20;99.90
53264;DHT22;39153;52.680;6.172;2022-10-31T03:39:21;10.90;99.90
53264;DHT22;39153;52.680;6.172;2022-10-31T03:41:57;10.80;99.90
53264;DHT22;39153;52.680;6.172;2022-10-31T03:44:24;11.10;99.90
53264;DHT22;39153;52.680;6.172;2022-10-31T03:46:52;11.10;99.90
53264;DHT22;39153;52.680;6.172;2022-10-31T03:49:19;10.80;99.90
53264;DHT22;39153;52.680;6.172;2022-10-31T03:51:49;10.70;99.90
53264;DHT22;39153;52.680;6.172;2022-10-31T03:54:35;10.80;99.90
53264;DHT22;39153;52.680;6.172;2022-10-31T03:57:29;10.90;99.90
53264;DHT22;39153;52.680;6.172;2022-10-31T04:00:03;10.90;99.90
53264;DHT22;39153;52.680;6.172;2022-10-31T04:02:31;10.70;99.90
53264;DHT22;39153;52.680;6.172;2022-10-31T04:04:58;10.70;99.90
53264;DHT22;39153;52.680;6.172;2022-10-31T04:07:28;10.60;99.90
53264;DHT22;39153;52.680;6.172;2022-10-31T04:09:56;10.70;99.90
53264;DHT22;39153;52.680;6.172;2022-10-31T04:12:24;10.60;99.90
53264;DHT22;39153;52.680;6.172;2022-10-31T04:14:51;10.60;99.90
53264;DHT22;39153;52.680;6.172;2022-10-31T04:17:20;10.60;99.90
53264;DHT22;39153;52.680;6.172;2022-10-31T04:19:47;10.60;99.90
53264;DHT22;39153;52.680;6.172;2022-10-31T04:22:13;10.40;99.90
53264;DHT22;39153;52.680;6.172;2022-10-31T04:24:40;10.30;99.90
53264;DHT22;39153;52.680;6.172;2022-10-31T04:27:06;10.30;99.90
53264;DHT22;39153;52.680;6.172;2022-10-31T04:29:32;10.50;99.90
53264;DHT22;39153;52.680;6.172;2022-10-31T04:31:58;10.30;99.90
53264;DHT22;39153;52.680;6.172;2022-10-31T04:34:23;10.60;99.90
53264;DHT22;39153;52.680;6.172;2022-10-31T04:36:49;10.30;99.90
53264;DHT22;39153;52.680;6.172;2022-10-31T04:39:15;10.70;99.90
53264;DHT22;39153;52.680;6.172;2022-10-31T04:41:40;10.60;99.90
53264;DHT22;39153;52.680;6.172;2022-10-31T04:44:06;10.40;99.90
53264;DHT22;39153;52.680;6.172;2022-10-31T04:46:31;10.20;99.90
53264;DHT22;39153;52.680;6.172;2022-10-31T04:48:57;10.10;99.90
53264;DHT22;39153;52.680;6.172;2022-10-31T04:51:23;10.30;99.90
53264;DHT22;39153;52.680;6.172;2022-10-31T04:53:48;10.20;99.90
53264;DHT22;39153;52.680;6.172;2022-10-31T04:56:14;10.10;99.90
53264;DHT22;39153;52.680;6.172;2022-10-31T04:58:40;10.20;99.90
53264;DHT22;39153;52.680;6.172;2022-10-31T05:01:05;10.10;99.90
53264;DHT22;39153;52.680;6.172;2022-10-31T05:03:31;10.40;99.90
53264;DHT22;39153;52.680;6.172;2022-10-31T05:05:57;10.20;99.90
53264;DHT22;39153;52.680;6.172;2022-10-31T05:08:22;10.10;99.90
53264;DHT22;39153;52.680;6.172;2022-10-31T05:10:48;10.30;99.90
53264;DHT22;39153;52.680;6.172;2022-10-31T05:13:14;10.40;99.90
53264;DHT22;39153;52.680;6.172;2022-10-31T05:15:41;10.00;99.90
53264;DHT22;39153;52.680;6.172;2022-10-31T05:18:07;10.30;99.90
53264;DHT22;39153;52.680;6.172;2022-10-31T05:20:32;10.30;99.90
53264;DHT22;39153;52.680;6.172;2022-10-31T05:22:59;10.10;99.90
53264;DHT22;39153;52.680;6.172;2022-10-31T05:25:27;10.00;99.90
53264;DHT22;39153;52.680;6.172;2022-10-31T05:27:54;10.10;99.90
53264;DHT22;39153;52.680;6.172;2022-10-31T05:30:22;9.80;99.90
53264;DHT22;39153;52.680;6.172;2022-10-31T05:32:50;9.90;99.90
53264;DHT22;39153;52.680;6.172;2022-10-31T05:35:18;10.00;99.90
53264;DHT22;39153;52.680;6.172;2022-10-31T05:37:44;9.70;99.90
53264;DHT22;39153;52.680;6.172;2022-10-31T05:40:12;10.00;99.90
53264;DHT22;39153;52.680;6.172;2022-10-31T05:42:39;9.70;99.90
53264;DHT22;39153;52.680;6.172;2022-10-31T05:45:10;9.60;99.90
53264;DHT22;39153;52.680;6.172;2022-10-31T05:47:36;9.60;99.90
53264;DHT22;39153;52.680;6.172;2022-10-31T05:50:03;9.80;99.90
53264;DHT22;39153;52.680;6.172;2022-10-31T05:52:29;9.60;99.90
53264;DHT22;39153;52.680;6.172;2022-10-31T05:54:54;9.50;99.90
53264;DHT22;39153;52.680;6.172;2022-10-31T05:57:20;9.60;99.90
53264;DHT22;39153;52.680;6.172;2022-10-31T05:59:45;9.60;99.90
53264;DHT22;39153;52.680;6.172;2022-10-31T06:02:11;9.80;99.90
53264;DHT22;39153;52.680;6.172;2022-10-31T06:04:37;9.60;99.90
53264;DHT22;39153;52.680;6.172;2022-10-31T06:07:02;9.60;99.90
53264;DHT22;39153;52.680;6.172;2022-10-31T06:09:28;9.70;99.90
53264;DHT22;39153;52.680;6.172;2022-10-31T06:11:54;9.70;99.90
53264;DHT22;39153;52.680;6.172;2022-10-31T06:14:19;10.00;99.90
53264;DHT22;39153;52.680;6.172;2022-10-31T06:16:45;9.60;99.90
53264;DHT22;39153;52.680;6.172;2022-10-31T06:19:11;9.60;99.90
53264;DHT22;39153;52.680;6.172;2022-10-31T06:21:36;9.70;99.90
53264;DHT22;39153;52.680;6.172;2022-10-31T06:24:02;9.90;99.90
53264;DHT22;39153;52.680;6.172;2022-10-31T06:26:28;9.80;99.90
53264;DHT22;39153;52.680;6.172;2022-10-31T06:28:53;9.60;99.90
53264;DHT22;39153;52.680;6.172;2022-10-31T06:31:19;9.70;99.90
53264;DHT22;39153;52.680;6.172;2022-10-31T06:33:45;9.70;99.90
53264;DHT22;39153;52.680;6.172;2022-10-31T06:36:10;9.60;99.90
53264;DHT22;39153;52.680;6.172;2022-10-31T06:38:36;9.70;99.90
53264;DHT22;39153;52.680;6.172;2022-10-31T06:41:03;9.70;99.90
53264;DHT22;39153;52.680;6.172;2022-10-31T06:43:29;9.80;99.90
53264;DHT22;39153;52.680;6.172;2022-10-31T06:45:55;9.60;99.90
53264;DHT22;39153;52.680;6.172;2022-10-31T06:48:21;9.80;99.90
53264;DHT22;39153;52.680;6.172;2022-10-31T06:50:47;9.50;99.90
53264;DHT22;39153;52.680;6.172;2022-10-31T06:53:13;9.80;99.90
53264;DHT22;39153;52.680;6.172;2022-10-31T06:55:39;9.40;99.90
53264;DHT22;39153;52.680;6.172;2022-10-31T06:58:05;9.60;99.90
53264;DHT22;39153;52.680;6.172;2022-10-31T07:00:31;9.50;99.90
53264;DHT22;39153;52.680;6.172;2022-10-31T07:02:59;9.70;99.90
53264;DHT22;39153;52.680;6.172;2022-10-31T07:05:26;9.50;99.90
53264;DHT22;39153;52.680;6.172;2022-10-31T07:08:02;9.80;99.90
53264;DHT22;39153;52.680;6.172;2022-10-31T07:10:30;9.50;99.90
53264;DHT22;39153;52.680;6.172;2022-10-31T07:12:57;9.80;99.90
53264;DHT22;39153;52.680;6.172;2022-10-31T07:15:24;9.50;99.90
53264;DHT22;39153;52.680;6.172;2022-10-31T07:17:50;9.80;99.90
53264;DHT22;39153;52.680;6.172;2022-10-31T07:20:16;9.60;99.90
53264;DHT22;39153;52.680;6.172;2022-10-31T07:22:42;9.90;99.90
53264;DHT22;39153;52.680;6.172;2022-10-31T07:25:08;9.70;99.90
53264;DHT22;39153;52.680;6.172;2022-10-31T07:27:41;9.90;99.90
53264;DHT22;39153;52.680;6.172;2022-10-31T07:30:09;9.70;99.90
53264;DHT22;39153;52.680;6.172;2022-10-31T07:32:45;9.90;99.90
53264;DHT22;39153;52.680;6.172;2022-10-31T07:35:14;9.50;99.90
53264;DHT22;39153;52.680;6.172;2022-10-31T07:37:40;9.90;99.90
53264;DHT22;39153;52.680;6.172;2022-10-31T07:40:06;9.70;99.90
53264;DHT22;39153;52.680;6.172;2022-10-31T07:42:41;9.60;99.90
53264;DHT22;39153;52.680;6.172;2022-10-31T07:45:12;10.00;99.90
53264;DHT22;39153;52.680;6.172;2022-10-31T07:50:05;10.00;99.90
53264;DHT22;39153;52.680;6.172;2022-10-31T07:52:31;10.10;99.90
53264;DHT22;39153;52.680;6.172;2022-10-31T07:54:57;9.70;99.90
53264;DHT22;39153;52.680;6.172;2022-10-31T07:57:22;10.20;99.90
53264;DHT22;39153;52.680;6.172;2022-10-31T07:59:48;10.20;99.90
53264;DHT22;39153;52.680;6.172;2022-10-31T08:02:14;10.30;99.90
53264;DHT22;39153;52.680;6.172;2022-10-31T08:04:39;10.20;99.90
53264;DHT22;39153;52.680;6.172;2022-10-31T08:07:05;10.50;99.90
53264;DHT22;39153;52.680;6.172;2022-10-31T08:09:30;10.20;99.90
53264;DHT22;39153;52.680;6.172;2022-10-31T08:11:56;10.20;99.90
53264;DHT22;39153;52.680;6.172;2022-10-31T08:14:22;10.30;99.90
53264;DHT22;39153;52.680;6.172;2022-10-31T08:16:47;10.30;99.90
53264;DHT22;39153;52.680;6.172;2022-10-31T08:19:13;10.30;99.90
53264;DHT22;39153;52.680;6.172;2022-10-31T08:21:39;10.40;99.90
53264;DHT22;39153;52.680;6.172;2022-10-31T08:24:05;10.50;99.90
53264;DHT22;39153;52.680;6.172;2022-10-31T08:26:31;10.70;99.90
53264;DHT22;39153;52.680;6.172;2022-10-31T08:28:56;10.70;99.90
53264;DHT22;39153;52.680;6.172;2022-10-31T08:31:22;11.20;99.90
53264;DHT22;39153;52.680;6.172;2022-10-31T08:33:48;11.20;99.90
53264;DHT22;39153;52.680;6.172;2022-10-31T08:36:14;10.80;99.90
53264;DHT22;39153;52.680;6.172;2022-10-31T08:38:40;11.20;99.90
53264;DHT22;39153;52.680;6.172;2022-10-31T08:41:05;11.30;99.90
53264;DHT22;39153;52.680;6.172;2022-10-31T08:43:31;11.30;99.90
53264;DHT22;39153;52.680;6.172;2022-10-31T08:45:56;10.80;99.90
53264;DHT22;39153;52.680;6.172;2022-10-31T08:48:22;11.20;99.90
53264;DHT22;39153;52.680;6.172;2022-10-31T08:50:48;11.20;99.90
53264;DHT22;39153;52.680;6.172;2022-10-31T08:53:15;11.10;99.90
53264;DHT22;39153;52.680;6.172;2022-10-31T08:55:42;11.10;99.90
53264;DHT22;39153;52.680;6.172;2022-10-31T08:58:15;11.10;99.90
53264;DHT22;39153;52.680;6.172;2022-10-31T09:00:42;11.70;99.90
53264;DHT22;39153;52.680;6.172;2022-10-31T09:03:16;11.80;99.90
53264;DHT22;39153;52.680;6.172;2022-10-31T09:05:42;11.80;99.90
53264;DHT22;39153;52.680;6.172;2022-10-31T09:08:08;11.60;99.90
53264;DHT22;39153;52.680;6.172;2022-10-31T09:10:36;12.00;99.90
53264;DHT22;39153;52.680;6.172;2022-10-31T09:13:16;11.60;99.90
53264;DHT22;39153;52.680;6.172;2022-10-31T09:15:44;12.10;99.90
53264;DHT22;39153;52.680;6.172;2022-10-31T09:18:11;11.60;99.90
53264;DHT22;39153;52.680;6.172;2022-10-31T09:20:38;11.90;99.90
53264;DHT22;39153;52.680;6.172;2022-10-31T09:25:33;12.00;99.90
53264;DHT22;39153;52.680;6.172;2022-10-31T09:27:59;11.90;99.90
53264;DHT22;39153;52.680;6.172;2022-10-31T09:30:27;12.00;99.90
53264;DHT22;39153;52.680;6.172;2022-10-31T09:33:01;12.20;99.90
53264;DHT22;39153;52.680;6.172;2022-10-31T09:35:27;12.60;99.90
53264;DHT22;39153;52.680;6.172;2022-10-31T09:37:54;12.40;99.90
53264;DHT22;39153;52.680;6.172;2022-10-31T09:40:20;12.60;99.90
53264;DHT22;39153;52.680;6.172;2022-10-31T09:45:30;12.80;99.90
53264;DHT22;39153;52.680;6.172;2022-10-31T09:54:20;12.60;99.90
53264;DHT22;39153;52.680;6.172;2022-10-31T09:56:47;12.50;99.90
53264;DHT22;39153;52.680;6.172;2022-10-31T09:59:33;12.40;99.90
53264;DHT22;39153;52.680;6.172;2022-10-31T10:02:05;12.70;99.90
53264;DHT22;39153;52.680;6.172;2022-10-31T10:05:03;12.50;99.90
53264;DHT22;39153;52.680;6.172;2022-10-31T10:10:09;12.70;99.90
53264;DHT22;39153;52.680;6.172;2022-10-31T10:13:09;13.10;99.90
53264;DHT22;39153;52.680;6.172;2022-10-31T10:24:31;13.80;99.90
53264;DHT22;39153;52.680;6.172;2022-10-31T10:27:14;13.70;99.90
53264;DHT22;39153;52.680;6.172;2022-10-31T10:32:19;14.10;99.90
53264;DHT22;39153;52.680;6.172;2022-10-31T10:34:55;14.20;99.90
53264;DHT22;39153;52.680;6.172;2022-10-31T10:37:33;14.50;99.90
53264;DHT22;39153;52.680;6.172;2022-10-31T10:40:21;14.60;99.90
53264;DHT22;39153;52.680;6.172;2022-10-31T10:54:17;14.70;99.90
53264;DHT22;39153;52.680;6.172;2022-10-31T10:57:13;14.80;99.90
53264;DHT22;39153;52.680;6.172;2022-10-31T10:59:43;14.80;99.90
53264;DHT22;39153;52.680;6.172;2022-10-31T11:02:31;14.70;99.90
53264;DHT22;39153;52.680;6.172;2022-10-31T11:04:59;14.90;99.90
53264;DHT22;39153;52.680;6.172;2022-10-31T11:07:25;14.70;99.90
53264;DHT22;39153;52.680;6.172;2022-10-31T11:10:06;14.90;99.90
53264;DHT22;39153;52.680;6.172;2022-10-31T11:12:38;14.90;99.90
53264;DHT22;39153;52.680;6.172;2022-10-31T11:15:21;14.90;99.90
53264;DHT22;39153;52.680;6.172;2022-10-31T11:17:52;14.80;99.90
53264;DHT22;39153;52.680;6.172;2022-10-31T11:22:46;14.90;99.90
53264;DHT22;39153;52.680;6.172;2022-10-31T11:25:26;14.80;99.90
53264;DHT22;39153;52.680;6.172;2022-10-31T11:28:03;14.80;99.90
53264;DHT22;39153;52.680;6.172;2022-10-31T11:30:30;14.90;99.90
53264;DHT22;39153;52.680;6.172;2022-10-31T11:32:56;15.00;99.90
53264;DHT22;39153;52.680;6.172;2022-10-31T11:35:23;14.90;99.90
53264;DHT22;39153;52.680;6.172;2022-10-31T11:37:51;15.00;99.90
53264;DHT22;39153;52.680;6.172;2022-10-31T11:40:24;15.00;99.90
53264;DHT22;39153;52.680;6.172;2022-10-31T11:42:51;15.20;99.90
53264;DHT22;39153;52.680;6.172;2022-10-31T11:47:52;15.10;99.90
53264;DHT22;39153;52.680;6.172;2022-10-31T11:50:24;15.20;99.90
53264;DHT22;39153;52.680;6.172;2022-10-31T11:52:53;15.30;99.90
53264;DHT22;39153;52.680;6.172;2022-10-31T11:55:36;15.30;99.90
53264;DHT22;39153;52.680;6.172;2022-10-31T11:58:03;15.30;99.90
53264;DHT22;39153;52.680;6.172;2022-10-31T12:00:31;15.30;99.90
53264;DHT22;39153;52.680;6.172;2022-10-31T12:06:06;15.40;99.90
53264;DHT22;39153;52.680;6.172;2022-10-31T12:08:35;15.40;99.90
53264;DHT22;39153;52.680;6.172;2022-10-31T12:14:14;15.50;99.90
53264;DHT22;39153;52.680;6.172;2022-10-31T12:17:05;15.60;99.90
53264;DHT22;39153;52.680;6.172;2022-10-31T12:25:42;15.50;99.90
53264;DHT22;39153;52.680;6.172;2022-10-31T12:30:59;15.60;99.90
53264;DHT22;39153;52.680;6.172;2022-10-31T12:33:34;15.60;99.90
53264;DHT22;39153;52.680;6.172;2022-10-31T12:44:12;15.80;99.90
53264;DHT22;39153;52.680;6.172;2022-10-31T12:52:33;16.30;99.90
53264;DHT22;39153;52.680;6.172;2022-10-31T12:58:09;16.50;99.90
53264;DHT22;39153;52.680;6.172;2022-10-31T13:00:37;16.50;99.90
53264;DHT22;39153;52.680;6.172;2022-10-31T13:03:28;16.60;99.90
53264;DHT22;39153;52.680;6.172;2022-10-31T13:05:59;16.50;99.90
53264;DHT22;39153;52.680;6.172;2022-10-31T13:08:40;16.60;99.90
53264;DHT22;39153;52.680;6.172;2022-10-31T13:11:18;16.60;99.90
53264;DHT22;39153;52.680;6.172;2022-10-31T13:16:37;16.60;99.90
53264;DHT22;39153;52.680;6.172;2022-10-31T13:22:05;16.50;99.90
53264;DHT22;39153;52.680;6.172;2022-10-31T13:25:02;16.40;99.90
53264;DHT22;39153;52.680;6.172;2022-10-31T13:27:35;16.50;99.90
53264;DHT22;39153;52.680;6.172;2022-10-31T13:30:17;16.50;99.90
53264;DHT22;39153;52.680;6.172;2022-10-31T13:33:23;16.40;99.90
53264;DHT22;39153;52.680;6.172;2022-10-31T13:38:51;16.30;99.90
53264;DHT22;39153;52.680;6.172;2022-10-31T13:41:33;16.30;99.90
53264;DHT22;39153;52.680;6.172;2022-10-31T13:44:22;16.30;99.90
53264;DHT22;39153;52.680;6.172;2022-10-31T13:46:52;16.20;99.90
53264;DHT22;39153;52.680;6.172;2022-10-31T13:52:25;16.30;99.90
53264;DHT22;39153;52.680;6.172;2022-10-31T13:54:53;16.30;99.90
53264;DHT22;39153;52.680;6.172;2022-10-31T13:57:53;16.30;99.90
53264;DHT22;39153;52.680;6.172;2022-10-31T14:02:48;16.20;99.90
53264;DHT22;39153;52.680;6.172;2022-10-31T14:05:32;16.20;99.90
53264;DHT22;39153;52.680;6.172;2022-10-31T14:08:01;16.20;99.90
53264;DHT22;39153;52.680;6.172;2022-10-31T14:10:31;16.10;99.90
53264;DHT22;39153;52.680;6.172;2022-10-31T14:13:18;16.00;99.90
53264;DHT22;39153;52.680;6.172;2022-10-31T14:18:25;16.00;99.90
53264;DHT22;39153;52.680;6.172;2022-10-31T14:20:54;15.90;99.90
53264;DHT22;39153;52.680;6.172;2022-10-31T14:26:51;15.90;99.90
53264;DHT22;39153;52.680;6.172;2022-10-31T14:28:56;15.90;99.90
53264;DHT22;39153;52.680;6.172;2022-10-31T14:34:32;15.80;99.90
53264;DHT22;39153;52.680;6.172;2022-10-31T14:47:54;15.70;99.90
53264;DHT22;39153;52.680;6.172;2022-10-31T14:50:25;15.70;99.90
53264;DHT22;39153;52.680;6.172;2022-10-31T14:52:57;15.60;99.90
53264;DHT22;39153;52.680;6.172;2022-10-31T14:55:26;15.70;99.90
53264;DHT22;39153;52.680;6.172;2022-10-31T14:58:04;15.70;99.90
53264;DHT22;39153;52.680;6.172;2022-10-31T15:00:32;15.70;99.90
53264;DHT22;39153;52.680;6.172;2022-10-31T15:05:42;15.70;99.90
53264;DHT22;39153;52.680;6.172;2022-10-31T15:10:52;15.70;99.90
53264;DHT22;39153;52.680;6.172;2022-10-31T15:13:20;15.60;99.90
53264;DHT22;39153;52.680;6.172;2022-10-31T15:15:47;15.60;99.90
53264;DHT22;39153;52.680;6.172;2022-10-31T15:18:16;15.60;99.90
53264;DHT22;39153;52.680;6.172;2022-10-31T15:20:44;15.50;99.90
53264;DHT22;39153;52.680;6.172;2022-10-31T15:23:15;15.50;99.90
53264;DHT22;39153;52.680;6.172;2022-10-31T15:25:41;15.40;99.90
53264;DHT22;39153;52.680;6.172;2022-10-31T15:28:15;15.40;99.90
53264;DHT22;39153;52.680;6.172;2022-10-31T15:30:53;15.40;99.90
53264;DHT22;39153;52.680;6.172;2022-10-31T15:33:25;15.30;99.90
53264;DHT22;39153;52.680;6.172;2022-10-31T15:35:55;15.20;99.90
53264;DHT22;39153;52.680;6.172;2022-10-31T15:38:21;15.30;99.90
53264;DHT22;39153;52.680;6.172;2022-10-31T15:41:06;15.20;99.90
53264;DHT22;39153;52.680;6.172;2022-10-31T15:43:46;15.20;99.90
53264;DHT22;39153;52.680;6.172;2022-10-31T15:46:12;15.10;99.90
53264;DHT22;39153;52.680;6.172;2022-10-31T15:48:38;15.10;99.90
53264;DHT22;39153;52.680;6.172;2022-10-31T15:51:06;15.10;99.90
53264;DHT22;39153;52.680;6.172;2022-10-31T15:53:41;15.00;99.90
53264;DHT22;39153;52.680;6.172;2022-10-31T15:56:19;15.10;99.90
53264;DHT22;39153;52.680;6.172;2022-10-31T15:58:48;15.00;99.90
53264;DHT22;39153;52.680;6.172;2022-10-31T16:01:26;15.00;99.90
53264;DHT22;39153;52.680;6.172;2022-10-31T16:04:19;14.90;99.90
53264;DHT22;39153;52.680;6.172;2022-10-31T16:06:58;15.00;99.90
53264;DHT22;39153;52.680;6.172;2022-10-31T16:09:25;15.00;99.90
53264;DHT22;39153;52.680;6.172;2022-10-31T16:11:51;14.90;99.90
53264;DHT22;39153;52.680;6.172;2022-10-31T16:14:19;14.90;99.90
53264;DHT22;39153;52.680;6.172;2022-10-31T16:16:49;14.80;99.90
53264;DHT22;39153;52.680;6.172;2022-10-31T16:19:33;14.90;99.90
53264;DHT22;39153;52.680;6.172;2022-10-31T16:22:09;14.90;99.90
53264;DHT22;39153;52.680;6.172;2022-10-31T16:29:45;14.80;99.90
53264;DHT22;39153;52.680;6.172;2022-10-31T16:37:38;14.70;99.90
53264;DHT22;39153;52.680;6.172;2022-10-31T16:40:04;14.80;99.90
53264;DHT22;39153;52.680;6.172;2022-10-31T16:42:30;14.70;99.90
53264;DHT22;39153;52.680;6.172;2022-10-31T16:44:55;14.70;99.90
53264;DHT22;39153;52.680;6.172;2022-10-31T16:47:21;14.80;99.90
53264;DHT22;39153;52.680;6.172;2022-10-31T16:49:48;14.70;99.90
53264;DHT22;39153;52.680;6.172;2022-10-31T16:52:18;14.70;99.90
53264;DHT22;39153;52.680;6.172;2022-10-31T16:54:43;14.60;99.90
53264;DHT22;39153;52.680;6.172;2022-10-31T16:57:17;14.70;99.90
53264;DHT22;39153;52.680;6.172;2022-10-31T16:59:43;14.60;99.90
53264;DHT22;39153;52.680;6.172;2022-10-31T17:02:14;14.60;99.90
53264;DHT22;39153;52.680;6.172;2022-10-31T17:04:40;14.70;99.90
53264;DHT22;39153;52.680;6.172;2022-10-31T17:07:06;14.60;99.90
53264;DHT22;39153;52.680;6.172;2022-10-31T17:09:32;14.60;99.90
53264;DHT22;39153;52.680;6.172;2022-10-31T17:11:58;14.60;99.90
53264;DHT22;39153;52.680;6.172;2022-10-31T17:14:24;14.70;99.90
53264;DHT22;39153;52.680;6.172;2022-10-31T17:16:50;14.60;99.90
53264;DHT22;39153;52.680;6.172;2022-10-31T17:19:16;14.60;99.90
53264;DHT22;39153;52.680;6.172;2022-10-31T17:21:42;14.60;99.90
53264;DHT22;39153;52.680;6.172;2022-10-31T17:24:12;14.60;99.90
53264;DHT22;39153;52.680;6.172;2022-10-31T17:26:38;14.60;99.90
53264;DHT22;39153;52.680;6.172;2022-10-31T17:29:04;14.50;99.90
53264;DHT22;39153;52.680;6.172;2022-10-31T17:31:31;14.50;99.90
53264;DHT22;39153;52.680;6.172;2022-10-31T17:33:58;14.60;99.90
53264;DHT22;39153;52.680;6.172;2022-10-31T17:36:24;14.50;99.90
53264;DHT22;39153;52.680;6.172;2022-10-31T17:38:50;14.50;99.90
53264;DHT22;39153;52.680;6.172;2022-10-31T17:41:16;14.60;99.90
53264;DHT22;39153;52.680;6.172;2022-10-31T17:43:42;14.60;99.90
53264;DHT22;39153;52.680;6.172;2022-10-31T17:46:08;14.50;99.90
53264;DHT22;39153;52.680;6.172;2022-10-31T17:48:35;14.40;99.90
53264;DHT22;39153;52.680;6.172;2022-10-31T17:51:02;14.50;99.90
53264;DHT22;39153;52.680;6.172;2022-10-31T17:53:29;14.40;99.90
53264;DHT22;39153;52.680;6.172;2022-10-31T17:56:02;14.50;99.90
53264;DHT22;39153;52.680;6.172;2022-10-31T17:58:28;14.40;99.90
53264;DHT22;39153;52.680;6.172;2022-10-31T18:00:54;14.50;99.90
53264;DHT22;39153;52.680;6.172;2022-10-31T18:03:20;14.50;99.90
53264;DHT22;39153;52.680;6.172;2022-10-31T18:05:56;14.50;99.90
53264;DHT22;39153;52.680;6.172;2022-10-31T18:08:30;14.60;99.90
53264;DHT22;39153;52.680;6.172;2022-10-31T18:10:57;14.50;99.90
53264;DHT22;39153;52.680;6.172;2022-10-31T18:13:26;14.40;99.90
53264;DHT22;39153;52.680;6.172;2022-10-31T18:15:53;14.50;99.90
53264;DHT22;39153;52.680;6.172;2022-10-31T18:18:19;14.60;99.90
53264;DHT22;39153;52.680;6.172;2022-10-31T18:20:44;14.60;99.90
53264;DHT22;39153;52.680;6.172;2022-10-31T18:23:10;14.50;99.90
53264;DHT22;39153;52.680;6.172;2022-10-31T18:25:37;14.50;99.90